| time (UTC) | temp F | wind direction | speed MPH | gust MPH | rain 1hr in | rain 24hr in | rain mn in | humidity % | barometer mb |
| 20260508104509 | 44 | 57 | 1.0 | 2.0 | 0.00 | 0.00 | 0.00 | 66 | 1015.3 |
| 20260508104008 | 44 | 62 | 2.0 | 2.0 | 0.00 | 0.00 | 0.00 | 66 | 1015.2 |
| 20260508103508 | 44 | 328 | 1.0 | 2.0 | 0.00 | 0.00 | 0.00 | 66 | 1015.2 |
| 20260508103009 | 44 | 103 | 0.0 | 1.0 | 0.00 | 0.00 | 0.00 | 67 | 1015.1 |
| 20260508102508 | 44 | 98 | 1.0 | 1.0 | 0.00 | 0.00 | 0.00 | 66 | 1015.1 |
| 20260508102009 | 44 | 66 | 2.0 | 3.0 | 0.00 | 0.00 | 0.00 | 66 | 1015.1 |
| 20260508101508 | 44 | 133 | 0.0 | 1.0 | 0.00 | 0.00 | 0.00 | 66 | 1015.1 |
| 20260508101011 | 44 | 74 | 2.0 | 2.0 | 0.00 | 0.00 | 0.00 | 67 | 1015.1 |
| 20260508100509 | 44 | 34 | 1.0 | 2.0 | 0.00 | 0.00 | 0.00 | 64 | 1015.1 |
| 20260508100008 | 45 | 24 | 2.0 | 2.0 | 0.00 | 0.00 | 0.00 | 65 | 1015.1 |
| 20260508095508 | 45 | 30 | 1.0 | 2.0 | 0.00 | 0.00 | 0.00 | 68 | 1015.0 |
| 20260508095009 | 45 | 62 | 2.0 | 2.0 | 0.00 | 0.00 | 0.00 | 67 | 1015.0 |
| 20260508094508 | 45 | 294 | 2.0 | 3.0 | 0.00 | 0.00 | 0.00 | 68 | 1015.0 |
| 20260508094008 | 45 | 80 | 1.0 | 2.0 | 0.00 | 0.00 | 0.00 | 67 | 1015.0 |
| 20260508093509 | 45 | 38 | 1.0 | 1.0 | 0.00 | 0.00 | 0.00 | 65 | 1015.0 |
| 20260508093008 | 45 | 110 | 1.0 | 1.0 | 0.00 | 0.00 | 0.00 | 65 | 1015.0 |
| 20260508092510 | 45 | 200 | 0.0 | 1.0 | 0.00 | 0.00 | 0.00 | 64 | 1015.0 |
| 20260508092009 | 45 | 57 | 0.0 | 0.0 | 0.00 | 0.00 | 0.00 | 64 | 1015.1 |
| 20260508091509 | 45 | 80 | 1.0 | 2.0 | 0.00 | 0.00 | 0.00 | 63 | 1015.0 |
| 20260508091010 | 45 | 260 | 3.0 | 4.0 | 0.00 | 0.00 | 0.00 | 62 | 1015.1 |
| 20260508090508 | 45 | 140 | 2.0 | 2.0 | 0.00 | 0.00 | 0.00 | 61 | 1015.0 |
| 20260508090008 | 45 | 298 | 0.0 | 1.0 | 0.00 | 0.00 | 0.00 | 62 | 1015.0 |
| 20260508085508 | 45 | 70 | 0.0 | 0.0 | 0.00 | 0.00 | 0.00 | 61 | 1015.0 |
| 20260508085008 | 45 | 237 | 1.0 | 1.0 | 0.00 | 0.00 | 0.00 | 62 | 1015.0 |
| 20260508084508 | 45 | 61 | 1.0 | 2.0 | 0.00 | 0.00 | 0.00 | 64 | 1015.0 |
| 20260508084009 | 45 | 28 | 0.0 | 1.0 | 0.00 | 0.00 | 0.00 | 62 | 1015.1 |
| 20260508083508 | 45 | 38 | 0.0 | 1.0 | 0.00 | 0.00 | 0.00 | 62 | 1015.2 |
| 20260508083009 | 45 | 16 | 0.0 | 0.0 | 0.00 | 0.00 | 0.00 | 62 | 1015.1 |
| 20260508082508 | 46 | 79 | 1.0 | 2.0 | 0.00 | 0.00 | 0.00 | 62 | 1015.2 |
| 20260508082008 | 46 | 32 | 2.0 | 3.0 | 0.00 | 0.00 | 0.00 | 61 | 1015.2 |
| 20260508081508 | 46 | 5 | 1.0 | 2.0 | 0.00 | 0.00 | 0.00 | 58 | 1015.2 |
| 20260508081009 | 46 | 47 | 0.0 | 0.0 | 0.00 | 0.00 | 0.00 | 59 | 1015.2 |
| 20260508080508 | 46 | 7 | 2.0 | 2.0 | 0.00 | 0.00 | 0.00 | 62 | 1015.2 |
| 20260508080009 | 46 | 15 | 0.0 | 0.0 | 0.00 | 0.00 | 0.00 | 60 | 1015.2 |
| 20260508075509 | 46 | 47 | 2.0 | 2.0 | 0.00 | 0.00 | 0.00 | 59 | 1015.2 |
| 20260508075009 | 47 | 43 | 2.0 | 2.0 | 0.00 | 0.00 | 0.00 | 61 | 1015.2 |
| 20260508074508 | 47 | 46 | 1.0 | 2.0 | 0.00 | 0.00 | 0.00 | 58 | 1015.2 |
| 20260508074009 | 48 | 9 | 3.0 | 3.0 | 0.00 | 0.00 | 0.00 | 60 | 1015.2 |
| 20260508073508 | 48 | 191 | 0.0 | 0.0 | 0.00 | 0.00 | 0.00 | 63 | 1015.2 |
| 20260508073008 | 48 | 71 | 2.0 | 3.0 | 0.00 | 0.00 | 0.00 | 62 | 1015.1 |
| 20260508072509 | 49 | 112 | 2.0 | 2.0 | 0.00 | 0.00 | 0.00 | 59 | 1015.2 |
| 20260508072008 | 49 | 166 | 0.0 | 0.0 | 0.00 | 0.00 | 0.00 | 58 | 1015.2 |
| 20260508071508 | 49 | 0 | 0.0 | 0.0 | 0.00 | 0.00 | 0.00 | 59 | 1015.2 |
| 20260508071008 | 50 | 328 | 2.0 | 2.0 | 0.00 | 0.00 | 0.00 | 58 | 1015.2 |
| 20260508070509 | 50 | 89 | 1.0 | 1.0 | 0.00 | 0.00 | 0.00 | 55 | 1015.1 |
| 20260508070009 | 51 | 1 | 2.0 | 2.0 | 0.00 | 0.00 | 0.00 | 54 | 1015.1 |
| 20260508065508 | 51 | 0 | 0.0 | 0.0 | 0.00 | 0.00 | 0.00 | 54 | 1015.1 |
| 20260508065009 | 52 | 304 | 1.0 | 1.0 | 0.00 | 0.00 | 0.00 | 51 | 1015.1 |
| 20260508064508 | 51 | 244 | 4.0 | 4.0 | 0.00 | 0.00 | 0.00 | 48 | 1015.0 |
| 20260508064009 | 52 | 82 | 0.0 | 1.0 | 0.00 | 0.00 | 0.00 | 50 | 1015.0 |
| 20260508063508 | 52 | 51 | 1.0 | 2.0 | 0.00 | 0.00 | 0.00 | 48 | 1014.9 |
| 20260508063008 | 52 | 27 | 1.0 | 2.0 | 0.00 | 0.00 | 0.00 | 50 | 1014.9 |
| 20260508062509 | 52 | 99 | 2.0 | 2.0 | 0.00 | 0.00 | 0.00 | 52 | 1014.8 |
| 20260508062009 | 53 | 347 | 1.0 | 1.0 | 0.00 | 0.00 | 0.00 | 52 | 1014.9 |
| 20260508061508 | 53 | 129 | 2.0 | 3.0 | 0.00 | 0.00 | 0.00 | 51 | 1014.9 |
| 20260508061010 | 54 | 75 | 2.0 | 2.0 | 0.00 | 0.00 | 0.00 | 48 | 1014.9 |
| 20260508060509 | 54 | 356 | 2.0 | 2.0 | 0.00 | 0.00 | 0.00 | 46 | 1014.9 |
| 20260508060010 | 55 | 129 | 3.0 | 3.0 | 0.00 | 0.00 | 0.00 | 48 | 1014.8 |
| 20260508055508 | 55 | 93 | 1.0 | 1.0 | 0.00 | 0.00 | 0.00 | 45 | 1014.8 |
| 20260508055008 | 54 | 54 | 2.0 | 2.0 | 0.00 | 0.00 | 0.00 | 45 | 1014.8 |
| 20260508054508 | 55 | 77 | 2.0 | 2.0 | 0.00 | 0.00 | 0.00 | 50 | 1014.8 |
| 20260508054008 | 55 | 354 | 2.0 | 2.0 | 0.00 | 0.00 | 0.00 | 49 | 1014.8 |
| 20260508053509 | 55 | 41 | 0.0 | 0.0 | 0.00 | 0.00 | 0.00 | 48 | 1014.8 |
| 20260508053009 | 56 | 20 | 1.0 | 2.0 | 0.00 | 0.00 | 0.00 | 48 | 1014.8 |
| 20260508052508 | 56 | 26 | 2.0 | 2.0 | 0.00 | 0.00 | 0.00 | 49 | 1014.9 |
| 20260508052008 | 56 | 124 | 0.0 | 0.0 | 0.00 | 0.00 | 0.00 | 50 | 1014.8 |
| 20260508051509 | 57 | 76 | 3.0 | 3.0 | 0.00 | 0.00 | 0.00 | 47 | 1014.8 |
| 20260508051009 | 57 | 0 | 0.0 | 0.0 | 0.00 | 0.00 | 0.00 | 49 | 1014.9 |
| 20260508050509 | 57 | 14 | 1.0 | 2.0 | 0.00 | 0.00 | 0.00 | 45 | 1015.0 |
| 20260508050010 | 57 | 26 | 3.0 | 3.0 | 0.00 | 0.00 | 0.00 | 47 | 1014.9 |
| 20260508045508 | 57 | 356 | 1.0 | 1.0 | 0.00 | 0.00 | 0.00 | 50 | 1014.9 |
| 20260508045009 | 57 | 55 | 1.0 | 2.0 | 0.00 | 0.00 | 0.00 | 49 | 1014.8 |
| 20260508044508 | 57 | 71 | 1.0 | 2.0 | 0.00 | 0.00 | 0.00 | 47 | 1014.8 |
| 20260508044008 | 57 | 0 | 0.0 | 0.0 | 0.00 | 0.00 | 0.00 | 46 | 1014.9 |
| 20260508043508 | 58 | 0 | 0.0 | 0.0 | 0.00 | 0.00 | 0.00 | 45 | 1014.9 |
| 20260508043008 | 58 | 48 | 1.0 | 2.0 | 0.00 | 0.00 | 0.00 | 44 | 1014.8 |
| 20260508042509 | 58 | 110 | 0.0 | 0.0 | 0.00 | 0.00 | 0.00 | 45 | 1014.9 |
| 20260508042008 | 59 | 35 | 0.0 | 0.0 | 0.00 | 0.00 | 0.00 | 42 | 1014.8 |
| 20260508041509 | 59 | 56 | 2.0 | 2.0 | 0.00 | 0.00 | 0.00 | 42 | 1014.8 |
| 20260508041008 | 60 | 149 | 1.0 | 1.0 | 0.00 | 0.00 | 0.00 | 41 | 1014.8 |
| 20260508040508 | 61 | 8 | 0.0 | 0.0 | 0.00 | 0.00 | 0.00 | 38 | 1014.8 |
| 20260508040008 | 61 | 174 | 0.0 | 0.0 | 0.00 | 0.00 | 0.00 | 37 | 1014.8 |
| 20260508035509 | 62 | 202 | 0.0 | 1.0 | 0.00 | 0.00 | 0.00 | 35 | 1014.8 |
| 20260508035009 | 63 | 287 | 1.0 | 1.0 | 0.00 | 0.00 | 0.00 | 40 | 1014.8 |
| 20260508034508 | 64 | 252 | 2.0 | 2.0 | 0.00 | 0.00 | 0.00 | 32 | 1014.7 |
| 20260508034009 | 64 | 166 | 3.0 | 4.0 | 0.00 | 0.00 | 0.00 | 33 | 1014.5 |
| 20260508033509 | 65 | 172 | 1.0 | 1.0 | 0.00 | 0.00 | 0.00 | 36 | 1014.7 |
| 20260508033009 | 66 | 297 | 2.0 | 2.0 | 0.00 | 0.00 | 0.00 | 34 | 1014.8 |
| 20260508032508 | 66 | 112 | 2.0 | 2.0 | 0.00 | 0.00 | 0.00 | 28 | 1014.5 |
| 20260508032008 | 67 | 336 | 0.0 | 1.0 | 0.00 | 0.00 | 0.00 | 28 | 1014.5 |
| 20260508031509 | 67 | 67 | 2.0 | 2.0 | 0.00 | 0.00 | 0.00 | 29 | 1014.4 |
| 20260508031009 | 67 | 89 | 1.0 | 3.0 | 0.00 | 0.00 | 0.00 | 28 | 1014.4 |
| 20260508030509 | 67 | 57 | 2.0 | 4.0 | 0.00 | 0.00 | 0.00 | 27 | 1014.4 |
| 20260508030008 | 67 | 60 | 2.0 | 6.0 | 0.00 | 0.00 | 0.00 | 27 | 1014.4 |
| 20260508025509 | 67 | 28 | 2.0 | 3.0 | 0.00 | 0.00 | 0.00 | 29 | 1014.5 |
| 20260508025010 | 67 | 53 | 1.0 | 2.0 | 0.00 | 0.00 | 0.00 | 28 | 1014.5 |
| 20260508024508 | 67 | 302 | 4.0 | 5.0 | 0.00 | 0.00 | 0.00 | 28 | 1014.5 |
| 20260508024008 | 67 | 327 | 0.0 | 1.0 | 0.00 | 0.00 | 0.00 | 31 | 1014.4 |
| 20260508023509 | 67 | 83 | 2.0 | 3.0 | 0.00 | 0.00 | 0.00 | 27 | 1014.3 |
| 20260508023008 | 67 | 79 | 2.0 | 3.0 | 0.00 | 0.00 | 0.00 | 27 | 1014.2 |
| 20260508022509 | 67 | 73 | 3.0 | 3.0 | 0.00 | 0.00 | 0.00 | 27 | 1014.1 |
| 20260508022009 | 67 | 176 | 1.0 | 2.0 | 0.00 | 0.00 | 0.00 | 26 | 1014.1 |
| 20260508021508 | 67 | 159 | 2.0 | 3.0 | 0.00 | 0.00 | 0.00 | 30 | 1014.0 |
| 20260508021008 | 67 | 131 | 1.0 | 2.0 | 0.00 | 0.00 | 0.00 | 31 | 1014.0 |
| 20260508020508 | 67 | 107 | 2.0 | 2.0 | 0.00 | 0.00 | 0.00 | 30 | 1014.0 |
| 20260508020009 | 67 | 58 | 1.0 | 2.0 | 0.00 | 0.00 | 0.00 | 31 | 1014.0 |
| 20260508015508 | 68 | 16 | 1.0 | 2.0 | 0.00 | 0.00 | 0.00 | 32 | 1014.0 |
| 20260508015008 | 69 | 10 | 3.0 | 4.0 | 0.00 | 0.00 | 0.00 | 30 | 1014.0 |
| 20260508014509 | 69 | 50 | 0.0 | 1.0 | 0.00 | 0.00 | 0.00 | 31 | 1013.9 |
| 20260508014009 | 70 | 0 | 1.0 | 2.0 | 0.00 | 0.00 | 0.00 | 31 | 1013.9 |
| 20260508013509 | 71 | 3 | 1.0 | 2.0 | 0.00 | 0.00 | 0.00 | 26 | 1013.7 |
| 20260508013009 | 71 | 70 | 0.0 | 2.0 | 0.00 | 0.00 | 0.00 | 27 | 1013.7 |
| 20260508012508 | 71 | 324 | 1.0 | 2.0 | 0.00 | 0.00 | 0.00 | 27 | 1013.7 |
| 20260508012008 | 72 | 357 | 1.0 | 2.0 | 0.00 | 0.00 | 0.00 | 27 | 1013.7 |
| 20260508011508 | 73 | 349 | 1.0 | 2.0 | 0.00 | 0.00 | 0.00 | 28 | 1013.7 |
| 20260508011008 | 74 | 7 | 1.0 | 2.0 | 0.00 | 0.00 | 0.00 | 24 | 1013.6 |
| 20260508010509 | 74 | 34 | 1.0 | 2.0 | 0.00 | 0.00 | 0.00 | 23 | 1013.6 |
| 20260508010008 | 74 | 352 | 2.0 | 2.0 | 0.00 | 0.00 | 0.00 | 23 | 1013.7 |
| 20260508005508 | 74 | 317 | 2.0 | 3.0 | 0.00 | 0.00 | 0.00 | 22 | 1013.7 |
| 20260508005008 | 74 | 266 | 3.0 | 5.0 | 0.00 | 0.00 | 0.00 | 23 | 1013.7 |
| 20260508004508 | 73 | 233 | 2.0 | 3.0 | 0.00 | 0.00 | 0.00 | 25 | 1013.7 |
| 20260508004010 | 73 | 271 | 2.0 | 3.0 | 0.00 | 0.00 | 0.00 | 25 | 1013.9 |
| 20260508003508 | 73 | 249 | 2.0 | 3.0 | 0.00 | 0.00 | 0.00 | 23 | 1013.9 |
| 20260508003008 | 73 | 270 | 3.0 | 5.0 | 0.00 | 0.00 | 0.00 | 23 | 1014.0 |
| 20260508002508 | 73 | 250 | 4.0 | 5.0 | 0.00 | 0.00 | 0.00 | 25 | 1014.0 |
| 20260508002009 | 73 | 270 | 4.0 | 5.0 | 0.00 | 0.00 | 0.00 | 24 | 1014.0 |
| 20260508001508 | 73 | 289 | 3.0 | 4.0 | 0.00 | 0.00 | 0.00 | 24 | 1014.0 |
| 20260508001009 | 72 | 316 | 4.0 | 5.0 | 0.00 | 0.00 | 0.00 | 24 | 1014.1 |
| 20260508000508 | 72 | 287 | 4.0 | 5.0 | 0.00 | 0.00 | 0.00 | 24 | 1014.1 |
| 20260508000009 | 72 | 293 | 5.0 | 8.0 | 0.00 | 0.00 | 0.00 | 24 | 1014.1 |
| 20260507235509 | 73 | 296 | 7.0 | 9.0 | 0.00 | 0.00 | 0.00 | 23 | 1014.1 |
| 20260507235009 | 73 | 300 | 7.0 | 11.0 | 0.00 | 0.00 | 0.00 | 24 | 1014.1 |
| 20260507234508 | 72 | 327 | 5.0 | 7.0 | 0.00 | 0.00 | 0.00 | 26 | 1014.1 |
| 20260507234008 | 71 | 319 | 6.0 | 8.0 | 0.00 | 0.00 | 0.00 | 25 | 1014.2 |
| 20260507233509 | 71 | 308 | 5.0 | 7.0 | 0.00 | 0.00 | 0.00 | 25 | 1014.2 |
| 20260507233008 | 71 | 316 | 5.0 | 7.0 | 0.00 | 0.00 | 0.00 | 25 | 1014.2 |
| 20260507232508 | 71 | 316 | 4.0 | 5.0 | 0.00 | 0.00 | 0.00 | 25 | 1014.3 |
| 20260507232009 | 72 | 300 | 4.0 | 6.0 | 0.00 | 0.00 | 0.00 | 24 | 1014.3 |
| 20260507231508 | 72 | 296 | 3.0 | 5.0 | 0.00 | 0.00 | 0.00 | 24 | 1014.4 |
| 20260507231010 | 73 | 58 | 3.0 | 4.0 | 0.00 | 0.00 | 0.00 | 22 | 1014.4 |
| 20260507230509 | 72 | 39 | 3.0 | 6.0 | 0.00 | 0.00 | 0.00 | 24 | 1014.4 |
| 20260507230009 | 72 | 18 | 1.0 | 2.0 | 0.00 | 0.00 | 0.00 | 22 | 1014.5 |
| 20260507225509 | 72 | 321 | 5.0 | 8.0 | 0.00 | 0.00 | 0.00 | 24 | 1014.5 |
| 20260507225009 | 71 | 328 | 7.0 | 10.0 | 0.00 | 0.00 | 0.00 | 24 | 1014.5 |
| 20260507224508 | 71 | 348 | 4.0 | 6.0 | 0.00 | 0.00 | 0.00 | 23 | 1014.7 |
| 20260507224009 | 72 | 294 | 4.0 | 6.0 | 0.00 | 0.00 | 0.00 | 23 | 1014.8 |
| 20260507223509 | 71 | 2 | 5.0 | 9.0 | 0.00 | 0.00 | 0.00 | 24 | 1014.8 |
| 20260507223008 | 71 | 72 | 4.0 | 6.0 | 0.00 | 0.00 | 0.00 | 24 | 1014.9 |
| 20260507222508 | 70 | 61 | 5.0 | 8.0 | 0.00 | 0.00 | 0.00 | 24 | 1014.9 |
| 20260507222008 | 70 | 96 | 4.0 | 5.0 | 0.00 | 0.00 | 0.00 | 24 | 1015.0 |
| 20260507221510 | 70 | 206 | 1.0 | 3.0 | 0.00 | 0.00 | 0.00 | 26 | 1015.0 |
| 20260507221009 | 70 | 124 | 3.0 | 4.0 | 0.00 | 0.00 | 0.00 | 25 | 1015.1 |
| 20260507220508 | 70 | 310 | 6.0 | 8.0 | 0.00 | 0.00 | 0.00 | 23 | 1015.5 |
| 20260507220009 | 70 | 267 | 4.0 | 6.0 | 0.00 | 0.00 | 0.00 | 24 | 1015.6 |
| 20260507215511 | 71 | 338 | 2.0 | 4.0 | 0.00 | 0.00 | 0.00 | 24 | 1015.6 |
| 20260507215009 | 70 | 113 | 1.0 | 3.0 | 0.00 | 0.00 | 0.00 | 24 | 1015.7 |
| 20260507214508 | 70 | 331 | 2.0 | 4.0 | 0.00 | 0.00 | 0.00 | 23 | 1015.9 |
| 20260507214008 | 70 | 317 | 4.0 | 8.0 | 0.00 | 0.00 | 0.00 | 24 | 1016.0 |
| 20260507213508 | 69 | 68 | 2.0 | 4.0 | 0.00 | 0.00 | 0.00 | 25 | 1016.1 |
| 20260507213008 | 69 | 69 | 4.0 | 7.0 | 0.00 | 0.00 | 0.00 | 25 | 1016.1 |
| 20260507212509 | 69 | 84 | 4.0 | 7.0 | 0.00 | 0.00 | 0.00 | 23 | 1016.3 |
| 20260507212008 | 69 | 300 | 4.0 | 7.0 | 0.00 | 0.00 | 0.00 | 24 | 1016.4 |
| 20260507211508 | 69 | 298 | 6.0 | 9.0 | 0.00 | 0.00 | 0.00 | 25 | 1016.6 |
| 20260507211008 | 69 | 358 | 3.0 | 5.0 | 0.00 | 0.00 | 0.00 | 26 | 1016.7 |
| 20260507210509 | 68 | 354 | 4.0 | 6.0 | 0.00 | 0.00 | 0.00 | 24 | 1016.8 |
| 20260507210009 | 67 | 318 | 5.0 | 8.0 | 0.00 | 0.00 | 0.00 | 27 | 1016.9 |
| 20260507205509 | 67 | 352 | 3.0 | 6.0 | 0.00 | 0.00 | 0.00 | 26 | 1017.1 |
| 20260507205009 | 67 | 260 | 2.0 | 3.0 | 0.00 | 0.00 | 0.00 | 29 | 1017.1 |
| 20260507204509 | 67 | 352 | 3.0 | 4.0 | 0.00 | 0.00 | 0.00 | 26 | 1017.3 |
| 20260507204008 | 67 | 237 | 3.0 | 4.0 | 0.00 | 0.00 | 0.00 | 26 | 1017.3 |
| 20260507203509 | 66 | 82 | 2.0 | 5.0 | 0.00 | 0.00 | 0.00 | 26 | 1017.5 |
| 20260507203009 | 65 | 55 | 2.0 | 5.0 | 0.00 | 0.00 | 0.00 | 25 | 1017.5 |
| 20260507202509 | 65 | 335 | 4.0 | 8.0 | 0.00 | 0.00 | 0.00 | 26 | 1017.6 |
| 20260507202009 | 65 | 248 | 2.0 | 3.0 | 0.00 | 0.00 | 0.00 | 31 | 1017.8 |
| 20260507201509 | 65 | 262 | 5.0 | 8.0 | 0.00 | 0.00 | 0.00 | 28 | 1017.9 |
| 20260507201009 | 66 | 344 | 3.0 | 4.0 | 0.00 | 0.00 | 0.00 | 25 | 1018.0 |
| 20260507200509 | 65 | 319 | 2.0 | 3.0 | 0.00 | 0.00 | 0.00 | 29 | 1018.1 |
| 20260507200008 | 65 | 12 | 4.0 | 6.0 | 0.00 | 0.00 | 0.00 | 26 | 1018.1 |
| 20260507195508 | 64 | 307 | 6.0 | 9.0 | 0.00 | 0.00 | 0.00 | 28 | 1018.1 |
| 20260507195009 | 64 | 67 | 3.0 | 5.0 | 0.00 | 0.00 | 0.00 | 27 | 1018.3 |
| 20260507194509 | 64 | 358 | 2.0 | 4.0 | 0.00 | 0.00 | 0.00 | 27 | 1018.4 |
| 20260507194009 | 64 | 333 | 4.0 | 7.0 | 0.00 | 0.00 | 0.00 | 28 | 1018.6 |
| 20260507193509 | 63 | 320 | 4.0 | 7.0 | 0.00 | 0.00 | 0.00 | 29 | 1018.7 |
| 20260507193009 | 63 | 297 | 5.0 | 7.0 | 0.00 | 0.00 | 0.00 | 31 | 1018.7 |
| 20260507192508 | 63 | 306 | 3.0 | 5.0 | 0.00 | 0.00 | 0.00 | 31 | 1018.8 |
| 20260507192008 | 62 | 345 | 3.0 | 7.0 | 0.00 | 0.00 | 0.00 | 28 | 1018.8 |
| 20260507191509 | 62 | 118 | 3.0 | 6.0 | 0.00 | 0.00 | 0.00 | 28 | 1018.9 |
| 20260507191008 | 61 | 53 | 4.0 | 7.0 | 0.00 | 0.00 | 0.00 | 29 | 1019.0 |
| 20260507190508 | 61 | 68 | 4.0 | 7.0 | 0.00 | 0.00 | 0.00 | 29 | 1019.1 |
| 20260507190009 | 62 | 172 | 4.0 | 6.0 | 0.00 | 0.00 | 0.00 | 29 | 1019.2 |
| 20260507185509 | 61 | 28 | 1.0 | 2.0 | 0.00 | 0.00 | 0.00 | 33 | 1019.4 |
| 20260507185008 | 61 | 175 | 2.0 | 5.0 | 0.00 | 0.00 | 0.00 | 30 | 1019.5 |
| 20260507184508 | 61 | 170 | 2.0 | 4.0 | 0.00 | 0.00 | 0.00 | 32 | 1019.6 |
| 20260507184008 | 61 | 175 | 1.0 | 2.0 | 0.00 | 0.00 | 0.00 | 32 | 1019.8 |
| 20260507183509 | 60 | 319 | 3.0 | 4.0 | 0.00 | 0.00 | 0.00 | 29 | 1019.8 |
| 20260507183008 | 59 | 317 | 2.0 | 4.0 | 0.00 | 0.00 | 0.00 | 31 | 1019.9 |
| 20260507182508 | 59 | 271 | 4.0 | 6.0 | 0.00 | 0.00 | 0.00 | 29 | 1020.0 |
| 20260507182008 | 59 | 213 | 5.0 | 8.0 | 0.00 | 0.00 | 0.00 | 30 | 1020.0 |
| 20260507181508 | 58 | 286 | 3.0 | 7.0 | 0.00 | 0.00 | 0.00 | 37 | 1020.2 |
| 20260507181008 | 59 | 132 | 4.0 | 6.0 | 0.00 | 0.00 | 0.00 | 36 | 1020.4 |
| 20260507180508 | 59 | 302 | 0.0 | 2.0 | 0.00 | 0.00 | 0.00 | 42 | 1020.5 |
| 20260507180008 | 59 | 294 | 1.0 | 5.0 | 0.00 | 0.00 | 0.00 | 32 | 1020.5 |
| 20260507175510 | 59 | 235 | 4.0 | 6.0 | 0.00 | 0.00 | 0.00 | 30 | 1020.6 |
| 20260507175008 | 60 | 280 | 5.0 | 8.0 | 0.00 | 0.00 | 0.00 | 29 | 1020.6 |
| 20260507174509 | 59 | 21 | 2.0 | 4.0 | 0.00 | 0.00 | 0.00 | 32 | 1020.6 |
| 20260507174009 | 59 | 147 | 2.0 | 4.0 | 0.00 | 0.00 | 0.00 | 28 | 1020.7 |
| 20260507173510 | 59 | 83 | 3.0 | 4.0 | 0.00 | 0.00 | 0.00 | 29 | 1020.8 |
| 20260507173009 | 59 | 18 | 2.0 | 3.0 | 0.00 | 0.00 | 0.00 | 29 | 1020.8 |
| 20260507172508 | 58 | 186 | 2.0 | 4.0 | 0.00 | 0.00 | 0.00 | 30 | 1021.0 |
| 20260507172009 | 58 | 243 | 2.0 | 3.0 | 0.00 | 0.00 | 0.00 | 28 | 1021.1 |
| 20260507171510 | 57 | 349 | 3.0 | 4.0 | 0.00 | 0.00 | 0.00 | 28 | 1021.1 |
| 20260507171009 | 57 | 72 | 3.0 | 5.0 | 0.00 | 0.00 | 0.00 | 29 | 1021.0 |
| 20260507170509 | 57 | 98 | 1.0 | 2.0 | 0.00 | 0.00 | 0.00 | 29 | 1021.1 |
| 20260507170008 | 56 | 109 | 2.0 | 4.0 | 0.00 | 0.00 | 0.00 | 33 | 1021.1 |
| 20260507165509 | 56 | 173 | 3.0 | 6.0 | 0.00 | 0.00 | 0.00 | 30 | 1021.2 |
| 20260507165008 | 56 | 130 | 4.0 | 8.0 | 0.00 | 0.00 | 0.00 | 35 | 1021.2 |
| 20260507164508 | 56 | 143 | 2.0 | 5.0 | 0.00 | 0.00 | 0.00 | 33 | 1021.3 |
| 20260507164009 | 55 | 241 | 2.0 | 3.0 | 0.00 | 0.00 | 0.00 | 34 | 1021.4 |
| 20260507163511 | 55 | 121 | 3.0 | 6.0 | 0.00 | 0.00 | 0.00 | 36 | 1021.4 |
| 20260507163008 | 54 | 114 | 5.0 | 6.0 | 0.00 | 0.00 | 0.00 | 34 | 1021.5 |
| 20260507162508 | 54 | 139 | 3.0 | 7.0 | 0.00 | 0.00 | 0.00 | 37 | 1021.7 |
| 20260507162009 | 54 | 105 | 6.0 | 8.0 | 0.00 | 0.00 | 0.00 | 36 | 1021.7 |
| 20260507161509 | 53 | 127 | 4.0 | 6.0 | 0.00 | 0.00 | 0.00 | 37 | 1021.8 |
| 20260507161008 | 53 | 82 | 4.0 | 6.0 | 0.00 | 0.00 | 0.00 | 36 | 1021.9 |
| 20260507160509 | 53 | 118 | 4.0 | 7.0 | 0.00 | 0.00 | 0.00 | 36 | 1022.0 |
| 20260507160009 | 53 | 145 | 4.0 | 6.0 | 0.00 | 0.00 | 0.00 | 37 | 1022.0 |
| 20260507155509 | 52 | 144 | 3.0 | 6.0 | 0.00 | 0.00 | 0.00 | 36 | 1022.1 |
| 20260507155009 | 52 | 142 | 4.0 | 5.0 | 0.00 | 0.00 | 0.00 | 39 | 1022.2 |
| 20260507154508 | 52 | 148 | 6.0 | 9.0 | 0.00 | 0.00 | 0.00 | 36 | 1022.1 |
| 20260507154010 | 52 | 151 | 4.0 | 7.0 | 0.00 | 0.00 | 0.00 | 38 | 1022.1 |
| 20260507153508 | 51 | 147 | 7.0 | 9.0 | 0.00 | 0.00 | 0.00 | 37 | 1022.1 |
| 20260507153010 | 51 | 155 | 6.0 | 8.0 | 0.00 | 0.00 | 0.00 | 38 | 1022.1 |
| 20260507152508 | 50 | 163 | 6.0 | 8.0 | 0.00 | 0.00 | 0.00 | 39 | 1022.2 |
| 20260507152009 | 50 | 145 | 6.0 | 9.0 | 0.00 | 0.00 | 0.00 | 38 | 1022.1 |
| 20260507151508 | 50 | 158 | 8.0 | 10.0 | 0.00 | 0.00 | 0.00 | 39 | 1022.1 |
| 20260507151009 | 49 | 162 | 6.0 | 8.0 | 0.00 | 0.00 | 0.00 | 41 | 1022.2 |
| 20260507150508 | 49 | 163 | 8.0 | 12.0 | 0.00 | 0.00 | 0.00 | 39 | 1022.3 |
| 20260507150009 | 50 | 135 | 8.0 | 12.0 | 0.00 | 0.00 | 0.00 | 39 | 1022.1 |
| 20260507145509 | 49 | 150 | 6.0 | 12.0 | 0.00 | 0.00 | 0.00 | 41 | 1022.3 |
| 20260507145009 | 49 | 140 | 6.0 | 9.0 | 0.00 | 0.00 | 0.00 | 41 | 1022.5 |
| 20260507144509 | 49 | 128 | 6.0 | 8.0 | 0.00 | 0.00 | 0.00 | 41 | 1022.6 |
| 20260507144009 | 48 | 161 | 6.0 | 9.0 | 0.00 | 0.00 | 0.00 | 43 | 1022.7 |
| 20260507143508 | 47 | 145 | 3.0 | 4.0 | 0.00 | 0.00 | 0.00 | 46 | 1022.8 |
| 20260507143018 | 46 | 133 | 5.0 | 7.0 | 0.00 | 0.00 | 0.00 | 46 | 1022.8 |
| 20260507142511 | 46 | 144 | 5.0 | 9.0 | 0.00 | 0.00 | 0.00 | 47 | 1022.9 |
| 20260507142009 | 45 | 185 | 3.0 | 6.0 | 0.00 | 0.00 | 0.00 | 51 | 1022.9 |
| 20260507141509 | 44 | 168 | 3.0 | 5.0 | 0.00 | 0.00 | 0.00 | 52 | 1023.0 |
| 20260507141009 | 45 | 168 | 5.0 | 7.0 | 0.00 | 0.00 | 0.00 | 51 | 1023.0 |
| 20260507140509 | 46 | 181 | 4.0 | 6.0 | 0.00 | 0.00 | 0.00 | 51 | 1023.0 |
| 20260507140010 | 45 | 217 | 0.0 | 2.0 | 0.00 | 0.00 | 0.00 | 51 | 1023.0 |
| 20260507135508 | 45 | 204 | 2.0 | 3.0 | 0.00 | 0.00 | 0.00 | 52 | 1023.0 |
| 20260507135008 | 44 | 185 | 3.0 | 4.0 | 0.00 | 0.00 | 0.00 | 49 | 1023.0 |
| 20260507134509 | 44 | 128 | 1.0 | 2.0 | 0.00 | 0.00 | 0.00 | 52 | 1023.0 |
| 20260507134008 | 42 | 119 | 1.0 | 2.0 | 0.00 | 0.00 | 0.00 | 53 | 1023.0 |
| 20260507133508 | 41 | 286 | 0.0 | 1.0 | 0.00 | 0.00 | 0.00 | 58 | 1022.9 |
| 20260507133008 | 40 | 314 | 1.0 | 1.0 | 0.00 | 0.00 | 0.00 | 59 | 1022.8 |
| 20260507132509 | 39 | 7 | 1.0 | 2.0 | 0.00 | 0.00 | 0.00 | 63 | 1022.8 |
| 20260507132009 | 38 | 348 | 2.0 | 2.0 | 0.00 | 0.00 | 0.00 | 64 | 1022.8 |
| 20260507131508 | 37 | 355 | 2.0 | 3.0 | 0.00 | 0.00 | 0.00 | 66 | 1022.7 |
| 20260507131009 | 37 | 352 | 1.0 | 2.0 | 0.00 | 0.00 | 0.00 | 67 | 1022.6 |
| 20260507130509 | 36 | 47 | 1.0 | 2.0 | 0.00 | 0.00 | 0.00 | 68 | 1022.6 |
| 20260507130008 | 35 | 82 | 1.0 | 2.0 | 0.00 | 0.00 | 0.00 | 69 | 1022.6 |
| 20260507125508 | 35 | 44 | 1.0 | 2.0 | 0.00 | 0.00 | 0.00 | 69 | 1022.5 |
| 20260507125008 | 34 | 44 | 0.0 | 1.0 | 0.00 | 0.00 | 0.00 | 70 | 1022.5 |
| 20260507124509 | 33 | 98 | 1.0 | 1.0 | 0.00 | 0.00 | 0.00 | 72 | 1022.6 |
| 20260507124008 | 32 | 59 | 1.0 | 1.0 | 0.00 | 0.00 | 0.00 | 71 | 1022.5 |
| 20260507123508 | 32 | 54 | 1.0 | 1.0 | 0.00 | 0.00 | 0.00 | 72 | 1022.5 |
| 20260507123010 | 32 | 284 | 0.0 | 1.0 | 0.00 | 0.00 | 0.00 | 71 | 1022.5 |
| 20260507122509 | 32 | 31 | 1.0 | 2.0 | 0.00 | 0.00 | 0.00 | 70 | 1022.5 |
| 20260507122009 | 32 | 38 | 2.0 | 3.0 | 0.00 | 0.00 | 0.00 | 73 | 1022.3 |
| 20260507121508 | 32 | 39 | 1.0 | 2.0 | 0.00 | 0.00 | 0.00 | 74 | 1022.3 |
| 20260507121009 | 32 | 39 | 2.0 | 2.0 | 0.00 | 0.00 | 0.00 | 75 | 1022.3 |
| 20260507120508 | 32 | 55 | 1.0 | 2.0 | 0.00 | 0.00 | 0.00 | 78 | 1022.3 |
| 20260507120009 | 32 | 203 | 0.0 | 0.0 | 0.00 | 0.00 | 0.00 | 76 | 1022.2 |
| 20260507115509 | 32 | 19 | 0.0 | 1.0 | 0.00 | 0.00 | 0.00 | 76 | 1022.2 |
| 20260507115008 | 32 | 265 | 0.0 | 0.0 | 0.00 | 0.00 | 0.00 | 75 | 1022.2 |
| 20260507114509 | 32 | 307 | 1.0 | 1.0 | 0.00 | 0.00 | 0.00 | 74 | 1022.2 |
| 20260507114009 | 32 | 266 | 1.0 | 2.0 | 0.00 | 0.00 | 0.00 | 74 | 1022.3 |
| 20260507113508 | 32 | 294 | 1.0 | 2.0 | 0.00 | 0.00 | 0.00 | 74 | 1022.3 |
| 20260507113008 | 33 | 261 | 1.0 | 2.0 | 0.00 | 0.00 | 0.00 | 72 | 1022.2 |
| 20260507112509 | 33 | 244 | 2.0 | 3.0 | 0.00 | 0.00 | 0.00 | 72 | 1022.1 |
| 20260507112008 | 34 | 216 | 0.0 | 1.0 | 0.00 | 0.00 | 0.00 | 70 | 1022.1 |
| 20260507111509 | 34 | 16 | 1.0 | 1.0 | 0.00 | 0.00 | 0.00 | 69 | 1022.2 |
| 20260507111008 | 35 | 77 | 1.0 | 1.0 | 0.00 | 0.00 | 0.00 | 68 | 1022.2 |
| 20260507110509 | 35 | 322 | 0.0 | 1.0 | 0.00 | 0.00 | 0.00 | 66 | 1022.2 |
| 20260507110009 | 36 | 53 | 0.0 | 0.0 | 0.00 | 0.00 | 0.00 | 64 | 1022.2 |
| 20260507105509 | 37 | 274 | 1.0 | 1.0 | 0.00 | 0.00 | 0.00 | 62 | 1022.2 |
| 20260507105009 | 36 | 104 | 0.0 | 1.0 | 0.00 | 0.00 | 0.00 | 63 | 1022.1 |